Golden Iris — 3FZK4 — position and weather

sailwx.info

Track history (hours):
 
Tides and Currents Weather Stations Pressure Air Temp Water Temp Dewpoint Dewpoint Depression Visibility Wind Speed Wind Dir Waves Ship Positions

Golden Iris

Last reported at 2016-May-04 20:33 UTC. Time now 2016-May-04 21:14 UTC.
Position N 34°39' E 033°01'.

Length 163 m; draft 6 m.

Type: Passenger vessel. MMSI: 371771000.

Date/timePositionNaut miles runAvg speedWind from/ knotsBaromVisibWave heightAir tempDewpointWater temp
2016-May-04 20:33N 34°39' E 033°01'0 0.0
2016-May-04 19:33N 34°39' E 033°01'0 0.0
2016-May-04 18:33N 34°39' E 033°01'0 0.0
2016-May-04 17:33N 34°39' E 033°01'0 0.0
2016-May-04 16:33N 34°39' E 033°01'0 0.0
2016-May-04 15:33N 34°39' E 033°01'0 0.0
2016-May-04 14:33N 34°39' E 033°01'0 0.0
2016-May-04 13:33N 34°39' E 033°01'0 0.0
2016-May-04 12:33N 34°39' E 033°01'0 0.0
2016-May-04 11:33N 34°39' E 033°01'1 1.3
2016-May-04 10:33N 34°39' E 033°03'7 7.5
2016-May-04 09:33N 34°32' E 033°01'1312.6
2016-May-04 08:33N 34°33' E 032°46'  
2016-May-02 00:32N 34°30' E 031°51'1414.4
2016-May-01 23:33N 34°22' E 032°05'1614.4
2016-May-01 22:26N 34°13' E 032°21'1214.1
2016-May-01 21:33N 34°07' E 032°34'1413.9
2016-May-01 20:31N 33°59' E 032°48'1313.5
2016-May-01 19:32N 33°51' E 033°02'1312.9
2016-May-01 18:33N 33°44' E 033°14'1312.7
2016-May-01 17:33N 33°37' E 033°27'7012.8
2016-May-01 12:07N 33°00' E 034°38'813.0
2016-May-01 11:31N 32°57' E 034°46'1313.3
2016-May-01 10:33N 32°51' E 034°60'2 2.1
2016-May-01 09:33N 32°49' E 035°00'0 0.0
2016-May-01 08:33N 32°49' E 035°00'0 0.0
2016-May-01 07:33N 32°49' E 035°00'0 0.0
2016-May-01 06:33N 32°49' E 035°00'0 0.0
2016-May-01 05:33N 32°49' E 035°00'0 0.0
2016-May-01 04:33N 32°49' E 035°00'0 0.0
2016-May-01 03:33N 32°49' E 035°00'1 1.3
2016-May-01 02:33N 32°50' E 035°01'1211.7
2016-May-01 01:34N 32°54' E 034°48'9 9.4
2016-May-01 00:34N 32°56' E 034°37'10 9.8
2016-Apr-30 23:33N 33°02' E 034°28'1111.0
2016-Apr-30 22:34N 33°12' E 034°22'1110.8
2016-Apr-30 21:34N 33°21' E 034°16'1010.4
2016-Apr-30 20:34N 33°31' E 034°11'1010.3
2016-Apr-30 19:34N 33°40' E 034°05'1110.5
2016-Apr-30 18:34N 33°50' E 034°00'1110.6
2016-Apr-30 17:34N 34°00' E 033°57'1010.0
2016-Apr-30 16:34N 34°09' E 033°53'1111.2
2016-Apr-30 15:33N 34°20' E 033°48'1211.6
2016-Apr-30 14:34N 34°31' E 033°47'1111.5
2016-Apr-30 13:34N 34°43' E 033°44'1111.2
2016-Apr-30 12:34N 34°54' E 033°41'3 2.8
2016-Apr-30 11:32N 34°56' E 033°39'0 0.0
2016-Apr-30 10:32N 34°56' E 033°39'0 0.0
2016-Apr-30 09:29N 34°56' E 033°39'0 0.0
2016-Apr-30 08:32N 34°56' E 033°39'0 0.0
2016-Apr-30 07:32N 34°56' E 033°39'0 0.0
2016-Apr-30 06:32N 34°56' E 033°39'0 0.0
2016-Apr-30 05:32N 34°56' E 033°39'0 0.0
2016-Apr-30 04:32N 34°56' E 033°39'0 0.0
2016-Apr-30 03:32N 34°56' E 033°39'0 0.0
2016-Apr-30 02:32N 34°56' E 033°39'0 0.0
2016-Apr-30 01:29N 34°56' E 033°39'0 0.0
2016-Apr-29 21:29N 34°56' E 033°38'0 0.0
2016-Apr-29 20:32N 34°56' E 033°39'0 0.0
2016-Apr-29 19:32N 34°56' E 033°39'0 0.0
2016-Apr-29 18:32N 34°56' E 033°39'0 0.0
2016-Apr-29 17:32N 34°56' E 033°39'0 0.0
2016-Apr-29 16:32N 34°56' E 033°39'0 0.0
2016-Apr-29 15:32N 34°56' E 033°39'0 0.0
2016-Apr-29 14:32N 34°56' E 033°39'0 0.0
2016-Apr-29 13:26N 34°56' E 033°39'0 0.0
2016-Apr-29 12:20N 34°56' E 033°38'0 0.0
2016-Apr-29 11:26N 34°56' E 033°39'18 7.9
2016-Apr-29 09:13N 34°40' E 033°28'914.0
2016-Apr-29 08:33N 34°37' E 033°18'1515.4
2016-Apr-29 07:33N 34°32' E 033°00'1514.8
2016-Apr-29 06:33N 34°35' E 032°43'  
2016-Apr-26 18:28N 34°01' E 032°48'2915.1
2016-Apr-26 16:32N 33°45' E 033°18'1615.0
2016-Apr-26 15:28N 33°35' E 033°33'2015.1
2016-Apr-26 14:07N 33°24' E 033°54'814.7
2016-Apr-26 13:33N 33°20' E 034°02'1514.5
2016-Apr-26 12:32N 33°12' E 034°17'1414.5
2016-Apr-26 11:33N 33°04' E 034°31'1515.0
2016-Apr-26 10:33N 32°57' E 034°47'1414.0
2016-Apr-26 09:34N 32°50' E 035°01'1 0.9
2016-Apr-26 08:32N 32°49' E 035°00'0 0.0
2016-Apr-26 07:32N 32°49' E 035°00'0 0.0
2016-Apr-26 06:32N 32°49' E 035°00'0 0.0
2016-Apr-26 05:32N 32°49' E 035°00'0 0.0
2016-Apr-26 04:29N 32°49' E 035°00'0 0.0
2016-Apr-26 03:32N 32°49' E 035°00'1 1.5
2016-Apr-26 02:33N 32°51' E 035°01'1010.0
2016-Apr-26 01:33N 32°54' E 034°50'1211.9
2016-Apr-26 00:33N 32°56' E 034°36'1110.6
2016-Apr-25 23:33N 32°58' E 034°23'9 9.3
2016-Apr-25 22:33N 33°07' E 034°24'1110.8
2016-Apr-25 21:33N 33°17' E 034°19'1111.4
2016-Apr-25 20:33N 33°27' E 034°13'1111.2
2016-Apr-25 19:33N 33°37' E 034°07'1110.9
2016-Apr-25 18:33N 33°47' E 034°02'1110.9
2016-Apr-25 17:31N 33°58' E 033°57'1111.3
2016-Apr-25 16:33N 34°08' E 033°54'1211.3
2016-Apr-25 15:30N 34°20' E 033°51'1111.3
2016-Apr-25 14:33N 34°30' E 033°48'1211.5
2016-Apr-25 13:33N 34°42' E 033°44'1211.7
2016-Apr-25 12:33N 34°53' E 033°41'3 3.2
2016-Apr-25 11:33N 34°55' E 033°39'0 0.0
2016-Apr-25 09:27N 34°55' E 033°39'0 0.0
2016-Apr-25 06:21N 34°55' E 033°39'0 0.0
2016-Apr-25 05:33N 34°55' E 033°39'0 0.0
2016-Apr-25 01:18N 34°55' E 033°39'0 0.0
2016-Apr-25 00:33N 34°55' E 033°39'0 0.0
2016-Apr-24 23:09N 34°55' E 033°39'0 0.0
2016-Apr-24 22:27N 34°55' E 033°39'0 0.0
2016-Apr-24 21:33N 34°55' E 033°39'  
Track history (hours):
 
Tides and Currents Weather Stations Pressure Air Temp Water Temp Dewpoint Dewpoint Depression Visibility Wind Speed Wind Dir Waves Ship Positions

Golden Iris

Last reported at 2016-May-04 20:33 UTC. Time now 2016-May-04 21:14 UTC.
Position N 34°39' E 033°01'.

Length 163 m; draft 6 m.

Type: Passenger vessel. MMSI: 371771000.

Date/timePositionNaut miles runAvg speedWind from/ knotsBaromVisibWave heightAir tempDewpointWater temp
2016-May-04 20:33N 34°39' E 033°01'0 0.0
2016-May-04 19:33N 34°39' E 033°01'0 0.0
2016-May-04 18:33N 34°39' E 033°01'0 0.0
2016-May-04 17:33N 34°39' E 033°01'0 0.0
2016-May-04 16:33N 34°39' E 033°01'0 0.0
2016-May-04 15:33N 34°39' E 033°01'0 0.0
2016-May-04 14:33N 34°39' E 033°01'0 0.0
2016-May-04 13:33N 34°39' E 033°01'0 0.0
2016-May-04 12:33N 34°39' E 033°01'0 0.0
2016-May-04 11:33N 34°39' E 033°01'1 1.3
2016-May-04 10:33N 34°39' E 033°03'7 7.5
2016-May-04 09:33N 34°32' E 033°01'1312.6
2016-May-04 08:33N 34°33' E 032°46'  
2016-May-02 00:32N 34°30' E 031°51'1414.4
2016-May-01 23:33N 34°22' E 032°05'1614.4
2016-May-01 22:26N 34°13' E 032°21'1214.1
2016-May-01 21:33N 34°07' E 032°34'1413.9
2016-May-01 20:31N 33°59' E 032°48'1313.5
2016-May-01 19:32N 33°51' E 033°02'1312.9
2016-May-01 18:33N 33°44' E 033°14'1312.7
2016-May-01 17:33N 33°37' E 033°27'7012.8
2016-May-01 12:07N 33°00' E 034°38'813.0
2016-May-01 11:31N 32°57' E 034°46'1313.3
2016-May-01 10:33N 32°51' E 034°60'2 2.1
2016-May-01 09:33N 32°49' E 035°00'0 0.0
2016-May-01 08:33N 32°49' E 035°00'0 0.0
2016-May-01 07:33N 32°49' E 035°00'0 0.0
2016-May-01 06:33N 32°49' E 035°00'0 0.0
2016-May-01 05:33N 32°49' E 035°00'0 0.0
2016-May-01 04:33N 32°49' E 035°00'0 0.0
2016-May-01 03:33N 32°49' E 035°00'1 1.3
2016-May-01 02:33N 32°50' E 035°01'1211.7
2016-May-01 01:34N 32°54' E 034°48'9 9.4
2016-May-01 00:34N 32°56' E 034°37'10 9.8
2016-Apr-30 23:33N 33°02' E 034°28'1111.0
2016-Apr-30 22:34N 33°12' E 034°22'1110.8
2016-Apr-30 21:34N 33°21' E 034°16'1010.4
2016-Apr-30 20:34N 33°31' E 034°11'1010.3
2016-Apr-30 19:34N 33°40' E 034°05'1110.5
2016-Apr-30 18:34N 33°50' E 034°00'1110.6
2016-Apr-30 17:34N 34°00' E 033°57'1010.0
2016-Apr-30 16:34N 34°09' E 033°53'1111.2
2016-Apr-30 15:33N 34°20' E 033°48'1211.6
2016-Apr-30 14:34N 34°31' E 033°47'1111.5
2016-Apr-30 13:34N 34°43' E 033°44'1111.2
2016-Apr-30 12:34N 34°54' E 033°41'3 2.8
2016-Apr-30 11:32N 34°56' E 033°39'0 0.0
2016-Apr-30 10:32N 34°56' E 033°39'0 0.0
2016-Apr-30 09:29N 34°56' E 033°39'0 0.0
2016-Apr-30 08:32N 34°56' E 033°39'0 0.0
2016-Apr-30 07:32N 34°56' E 033°39'0 0.0
2016-Apr-30 06:32N 34°56' E 033°39'0 0.0
2016-Apr-30 05:32N 34°56' E 033°39'0 0.0
2016-Apr-30 04:32N 34°56' E 033°39'0 0.0
2016-Apr-30 03:32N 34°56' E 033°39'0 0.0
2016-Apr-30 02:32N 34°56' E 033°39'0 0.0
2016-Apr-30 01:29N 34°56' E 033°39'0 0.0
2016-Apr-29 21:29N 34°56' E 033°38'0 0.0
2016-Apr-29 20:32N 34°56' E 033°39'0 0.0
2016-Apr-29 19:32N 34°56' E 033°39'0 0.0
2016-Apr-29 18:32N 34°56' E 033°39'0 0.0
2016-Apr-29 17:32N 34°56' E 033°39'0 0.0
2016-Apr-29 16:32N 34°56' E 033°39'0 0.0
2016-Apr-29 15:32N 34°56' E 033°39'0 0.0
2016-Apr-29 14:32N 34°56' E 033°39'0 0.0
2016-Apr-29 13:26N 34°56' E 033°39'0 0.0
2016-Apr-29 12:20N 34°56' E 033°38'0 0.0
2016-Apr-29 11:26N 34°56' E 033°39'18 7.9
2016-Apr-29 09:13N 34°40' E 033°28'914.0
2016-Apr-29 08:33N 34°37' E 033°18'1515.4
2016-Apr-29 07:33N 34°32' E 033°00'1514.8
2016-Apr-29 06:33N 34°35' E 032°43'  
2016-Apr-26 18:28N 34°01' E 032°48'2915.1
2016-Apr-26 16:32N 33°45' E 033°18'1615.0
2016-Apr-26 15:28N 33°35' E 033°33'2015.1
2016-Apr-26 14:07N 33°24' E 033°54'814.7
2016-Apr-26 13:33N 33°20' E 034°02'1514.5
2016-Apr-26 12:32N 33°12' E 034°17'1414.5
2016-Apr-26 11:33N 33°04' E 034°31'1515.0
2016-Apr-26 10:33N 32°57' E 034°47'1414.0
2016-Apr-26 09:34N 32°50' E 035°01'1 0.9
2016-Apr-26 08:32N 32°49' E 035°00'0 0.0
2016-Apr-26 07:32N 32°49' E 035°00'0 0.0
2016-Apr-26 06:32N 32°49' E 035°00'0 0.0
2016-Apr-26 05:32N 32°49' E 035°00'0 0.0
2016-Apr-26 04:29N 32°49' E 035°00'0 0.0
2016-Apr-26 03:32N 32°49' E 035°00'1 1.5
2016-Apr-26 02:33N 32°51' E 035°01'1010.0
2016-Apr-26 01:33N 32°54' E 034°50'1211.9
2016-Apr-26 00:33N 32°56' E 034°36'1110.6
2016-Apr-25 23:33N 32°58' E 034°23'9 9.3
2016-Apr-25 22:33N 33°07' E 034°24'1110.8
2016-Apr-25 21:33N 33°17' E 034°19'1111.4
2016-Apr-25 20:33N 33°27' E 034°13'1111.2
2016-Apr-25 19:33N 33°37' E 034°07'1110.9
2016-Apr-25 18:33N 33°47' E 034°02'1110.9
2016-Apr-25 17:31N 33°58' E 033°57'1111.3
2016-Apr-25 16:33N 34°08' E 033°54'1211.3
2016-Apr-25 15:30N 34°20' E 033°51'1111.3
2016-Apr-25 14:33N 34°30' E 033°48'1211.5
2016-Apr-25 13:33N 34°42' E 033°44'1211.7
2016-Apr-25 12:33N 34°53' E 033°41'3 3.2
2016-Apr-25 11:33N 34°55' E 033°39'0 0.0
2016-Apr-25 09:27N 34°55' E 033°39'0 0.0
2016-Apr-25 06:21N 34°55' E 033°39'0 0.0
2016-Apr-25 05:33N 34°55' E 033°39'0 0.0
2016-Apr-25 01:18N 34°55' E 033°39'0 0.0
2016-Apr-25 00:33N 34°55' E 033°39'0 0.0
2016-Apr-24 23:09N 34°55' E 033°39'0 0.0
2016-Apr-24 22:27N 34°55' E 033°39'0 0.0
2016-Apr-24 21:33N 34°55' E 033°39'  

Dump ship's entire track history